sensor_id;sensor_type;location;lat;lon;timestamp;P1;durP1;ratioP1;P2;durP2;ratioP2
54937;SDS011;52756;52.826;6.214;2022-07-11T00:00:03;3.45;;;1.73;;
54937;SDS011;52756;52.826;6.214;2022-07-11T00:02:32;3.78;;;1.50;;
54937;SDS011;52756;52.826;6.214;2022-07-11T00:04:58;5.60;;;1.75;;
54937;SDS011;52756;52.826;6.214;2022-07-11T00:07:24;4.78;;;2.10;;
54937;SDS011;52756;52.826;6.214;2022-07-11T00:09:50;3.85;;;1.92;;
54937;SDS011;52756;52.826;6.214;2022-07-11T00:12:15;6.20;;;2.42;;
54937;SDS011;52756;52.826;6.214;2022-07-11T00:14:41;2.70;;;1.60;;
54937;SDS011;52756;52.826;6.214;2022-07-11T00:17:07;5.38;;;2.08;;
54937;SDS011;52756;52.826;6.214;2022-07-11T00:19:34;4.28;;;1.52;;
54937;SDS011;52756;52.826;6.214;2022-07-11T00:22:01;4.88;;;1.50;;
54937;SDS011;52756;52.826;6.214;2022-07-11T00:24:27;4.03;;;1.70;;
54937;SDS011;52756;52.826;6.214;2022-07-11T00:26:54;4.95;;;1.58;;
54937;SDS011;52756;52.826;6.214;2022-07-11T00:29:20;6.60;;;2.20;;
54937;SDS011;52756;52.826;6.214;2022-07-11T00:31:46;3.92;;;1.80;;
54937;SDS011;52756;52.826;6.214;2022-07-11T00:34:11;2.05;;;1.25;;
54937;SDS011;52756;52.826;6.214;2022-07-11T00:36:37;5.10;;;1.58;;
54937;SDS011;52756;52.826;6.214;2022-07-11T00:39:03;3.05;;;1.30;;
54937;SDS011;52756;52.826;6.214;2022-07-11T00:41:29;4.15;;;1.60;;
54937;SDS011;52756;52.826;6.214;2022-07-11T00:43:55;3.83;;;1.50;;
54937;SDS011;52756;52.826;6.214;2022-07-11T00:46:23;4.75;;;1.92;;
54937;SDS011;52756;52.826;6.214;2022-07-11T00:48:50;4.20;;;1.85;;
54937;SDS011;52756;52.826;6.214;2022-07-11T00:51:20;2.33;;;1.50;;
54937;SDS011;52756;52.826;6.214;2022-07-11T00:53:51;2.20;;;1.27;;
54937;SDS011;52756;52.826;6.214;2022-07-11T00:56:24;4.05;;;1.90;;
54937;SDS011;52756;52.826;6.214;2022-07-11T00:58:52;2.67;;;1.80;;
54937;SDS011;52756;52.826;6.214;2022-07-11T01:01:19;3.45;;;1.88;;
54937;SDS011;52756;52.826;6.214;2022-07-11T01:03:45;3.33;;;1.70;;
54937;SDS011;52756;52.826;6.214;2022-07-11T01:06:11;3.50;;;1.80;;
54937;SDS011;52756;52.826;6.214;2022-07-11T01:08:38;2.92;;;1.70;;
54937;SDS011;52756;52.826;6.214;2022-07-11T01:11:04;2.35;;;1.30;;
54937;SDS011;52756;52.826;6.214;2022-07-11T01:13:35;6.07;;;1.80;;
54937;SDS011;52756;52.826;6.214;2022-07-11T01:16:14;2.45;;;1.75;;
54937;SDS011;52756;52.826;6.214;2022-07-11T01:18:45;3.80;;;1.60;;
54937;SDS011;52756;52.826;6.214;2022-07-11T01:24:10;2.92;;;1.63;;
54937;SDS011;52756;52.826;6.214;2022-07-11T01:26:36;2.70;;;1.60;;
54937;SDS011;52756;52.826;6.214;2022-07-11T01:31:32;2.92;;;1.70;;
54937;SDS011;52756;52.826;6.214;2022-07-11T01:33:58;3.30;;;1.58;;
54937;SDS011;52756;52.826;6.214;2022-07-11T01:36:23;2.45;;;1.60;;
54937;SDS011;52756;52.826;6.214;2022-07-11T01:38:49;3.05;;;1.42;;
54937;SDS011;52756;52.826;6.214;2022-07-11T01:41:15;2.78;;;1.65;;
54937;SDS011;52756;52.826;6.214;2022-07-11T01:43:40;3.17;;;1.55;;
54937;SDS011;52756;52.826;6.214;2022-07-11T01:46:06;2.45;;;1.67;;
54937;SDS011;52756;52.826;6.214;2022-07-11T01:48:32;2.63;;;1.73;;
54937;SDS011;52756;52.826;6.214;2022-07-11T01:50:57;2.22;;;1.42;;
54937;SDS011;52756;52.826;6.214;2022-07-11T01:53:23;4.72;;;2.25;;
54937;SDS011;52756;52.826;6.214;2022-07-11T01:55:50;4.13;;;1.70;;
54937;SDS011;52756;52.826;6.214;2022-07-11T01:58:16;4.95;;;1.92;;
54937;SDS011;52756;52.826;6.214;2022-07-11T02:00:41;3.10;;;1.45;;
54937;SDS011;52756;52.826;6.214;2022-07-11T02:03:07;3.70;;;1.88;;
54937;SDS011;52756;52.826;6.214;2022-07-11T02:05:33;4.50;;;2.10;;
54937;SDS011;52756;52.826;6.214;2022-07-11T02:07:59;3.92;;;1.88;;
54937;SDS011;52756;52.826;6.214;2022-07-11T02:10:41;5.03;;;1.95;;
54937;SDS011;52756;52.826;6.214;2022-07-11T02:13:09;3.33;;;1.50;;
54937;SDS011;52756;52.826;6.214;2022-07-11T02:15:37;2.17;;;1.45;;
54937;SDS011;52756;52.826;6.214;2022-07-11T02:18:03;2.60;;;1.80;;
54937;SDS011;52756;52.826;6.214;2022-07-11T02:20:29;3.22;;;1.40;;
54937;SDS011;52756;52.826;6.214;2022-07-11T02:22:55;2.05;;;1.58;;
54937;SDS011;52756;52.826;6.214;2022-07-11T02:25:21;2.47;;;1.50;;
54937;SDS011;52756;52.826;6.214;2022-07-11T02:27:47;2.60;;;1.70;;
54937;SDS011;52756;52.826;6.214;2022-07-11T02:30:13;3.20;;;1.52;;
54937;SDS011;52756;52.826;6.214;2022-07-11T02:32:39;3.53;;;1.63;;
54937;SDS011;52756;52.826;6.214;2022-07-11T02:35:05;5.10;;;1.98;;
54937;SDS011;52756;52.826;6.214;2022-07-11T02:37:31;3.67;;;2.00;;
54937;SDS011;52756;52.826;6.214;2022-07-11T02:39:57;3.10;;;1.60;;
54937;SDS011;52756;52.826;6.214;2022-07-11T02:42:23;2.13;;;1.63;;
54937;SDS011;52756;52.826;6.214;2022-07-11T02:44:48;3.22;;;1.75;;
54937;SDS011;52756;52.826;6.214;2022-07-11T02:47:14;2.47;;;1.40;;
54937;SDS011;52756;52.826;6.214;2022-07-11T02:49:40;3.95;;;2.35;;
54937;SDS011;52756;52.826;6.214;2022-07-11T02:52:06;5.35;;;1.67;;
54937;SDS011;52756;52.826;6.214;2022-07-11T02:54:32;6.80;;;2.33;;
54937;SDS011;52756;52.826;6.214;2022-07-11T02:56:58;2.92;;;1.50;;
54937;SDS011;52756;52.826;6.214;2022-07-11T02:59:24;4.47;;;1.58;;
54937;SDS011;52756;52.826;6.214;2022-07-11T03:01:50;3.97;;;1.70;;
54937;SDS011;52756;52.826;6.214;2022-07-11T03:04:15;2.80;;;1.77;;
54937;SDS011;52756;52.826;6.214;2022-07-11T03:06:41;3.00;;;1.75;;
54937;SDS011;52756;52.826;6.214;2022-07-11T03:09:08;3.58;;;2.00;;
54937;SDS011;52756;52.826;6.214;2022-07-11T03:11:34;4.20;;;2.00;;
54937;SDS011;52756;52.826;6.214;2022-07-11T03:14:00;4.63;;;1.80;;
54937;SDS011;52756;52.826;6.214;2022-07-11T03:16:27;4.22;;;2.00;;
54937;SDS011;52756;52.826;6.214;2022-07-11T03:18:53;4.88;;;2.53;;
54937;SDS011;52756;52.826;6.214;2022-07-11T03:21:19;3.50;;;2.08;;
54937;SDS011;52756;52.826;6.214;2022-07-11T03:23:44;3.00;;;1.55;;
54937;SDS011;52756;52.826;6.214;2022-07-11T03:26:10;3.10;;;1.98;;
54937;SDS011;52756;52.826;6.214;2022-07-11T03:28:36;3.75;;;2.40;;
54937;SDS011;52756;52.826;6.214;2022-07-11T03:31:02;5.20;;;2.33;;
54937;SDS011;52756;52.826;6.214;2022-07-11T03:33:28;7.03;;;2.80;;
54937;SDS011;52756;52.826;6.214;2022-07-11T03:35:54;5.53;;;2.55;;
54937;SDS011;52756;52.826;6.214;2022-07-11T03:38:19;5.40;;;2.38;;
54937;SDS011;52756;52.826;6.214;2022-07-11T03:40:46;5.10;;;2.42;;
54937;SDS011;52756;52.826;6.214;2022-07-11T03:43:13;4.65;;;2.58;;
54937;SDS011;52756;52.826;6.214;2022-07-11T03:45:39;2.95;;;2.25;;
54937;SDS011;52756;52.826;6.214;2022-07-11T03:48:05;4.47;;;2.47;;
54937;SDS011;52756;52.826;6.214;2022-07-11T03:50:32;3.60;;;2.33;;
54937;SDS011;52756;52.826;6.214;2022-07-11T03:52:58;6.97;;;2.95;;
54937;SDS011;52756;52.826;6.214;2022-07-11T03:55:24;4.60;;;2.92;;
54937;SDS011;52756;52.826;6.214;2022-07-11T03:57:50;3.97;;;2.88;;
54937;SDS011;52756;52.826;6.214;2022-07-11T04:00:15;4.03;;;2.65;;
54937;SDS011;52756;52.826;6.214;2022-07-11T04:02:42;3.63;;;2.63;;
54937;SDS011;52756;52.826;6.214;2022-07-11T04:05:07;3.08;;;2.28;;
54937;SDS011;52756;52.826;6.214;2022-07-11T04:07:33;5.40;;;2.17;;
54937;SDS011;52756;52.826;6.214;2022-07-11T04:09:59;2.25;;;1.80;;
54937;SDS011;52756;52.826;6.214;2022-07-11T04:12:25;2.95;;;2.00;;
54937;SDS011;52756;52.826;6.214;2022-07-11T04:14:50;3.92;;;2.20;;
54937;SDS011;52756;52.826;6.214;2022-07-11T04:17:16;3.60;;;2.10;;
54937;SDS011;52756;52.826;6.214;2022-07-11T04:19:42;3.25;;;1.92;;
54937;SDS011;52756;52.826;6.214;2022-07-11T04:22:08;2.80;;;1.80;;
54937;SDS011;52756;52.826;6.214;2022-07-11T04:24:33;3.78;;;2.50;;
54937;SDS011;52756;52.826;6.214;2022-07-11T04:26:59;3.92;;;2.00;;
54937;SDS011;52756;52.826;6.214;2022-07-11T04:29:25;2.28;;;1.60;;
54937;SDS011;52756;52.826;6.214;2022-07-11T04:31:51;2.72;;;1.77;;
54937;SDS011;52756;52.826;6.214;2022-07-11T04:34:17;3.30;;;1.45;;
54937;SDS011;52756;52.826;6.214;2022-07-11T04:36:43;2.63;;;1.75;;
54937;SDS011;52756;52.826;6.214;2022-07-11T04:39:09;2.35;;;1.58;;
54937;SDS011;52756;52.826;6.214;2022-07-11T04:41:35;2.88;;;1.33;;
54937;SDS011;52756;52.826;6.214;2022-07-11T04:44:01;2.08;;;1.48;;
54937;SDS011;52756;52.826;6.214;2022-07-11T04:46:27;2.35;;;1.23;;
54937;SDS011;52756;52.826;6.214;2022-07-11T04:48:54;1.70;;;1.02;;
54937;SDS011;52756;52.826;6.214;2022-07-11T04:51:20;2.42;;;1.25;;
54937;SDS011;52756;52.826;6.214;2022-07-11T04:53:46;2.35;;;1.00;;
54937;SDS011;52756;52.826;6.214;2022-07-11T04:56:12;2.97;;;1.42;;
54937;SDS011;52756;52.826;6.214;2022-07-11T04:58:38;1.67;;;0.85;;
54937;SDS011;52756;52.826;6.214;2022-07-11T05:01:04;1.23;;;0.75;;
54937;SDS011;52756;52.826;6.214;2022-07-11T05:03:30;2.10;;;0.80;;
54937;SDS011;52756;52.826;6.214;2022-07-11T05:05:57;1.08;;;0.90;;
54937;SDS011;52756;52.826;6.214;2022-07-11T05:08:22;2.60;;;0.93;;
54937;SDS011;52756;52.826;6.214;2022-07-11T05:10:48;2.22;;;0.80;;
54937;SDS011;52756;52.826;6.214;2022-07-11T05:13:14;1.83;;;0.80;;
54937;SDS011;52756;52.826;6.214;2022-07-11T05:15:40;2.13;;;0.80;;
54937;SDS011;52756;52.826;6.214;2022-07-11T05:18:06;1.45;;;0.70;;
54937;SDS011;52756;52.826;6.214;2022-07-11T05:20:32;1.80;;;0.65;;
54937;SDS011;52756;52.826;6.214;2022-07-11T05:22:58;1.20;;;0.80;;
54937;SDS011;52756;52.826;6.214;2022-07-11T05:25:24;2.15;;;0.63;;
54937;SDS011;52756;52.826;6.214;2022-07-11T05:27:50;1.27;;;0.60;;
54937;SDS011;52756;52.826;6.214;2022-07-11T05:30:16;1.30;;;0.60;;
54937;SDS011;52756;52.826;6.214;2022-07-11T05:32:42;1.23;;;0.43;;
54937;SDS011;52756;52.826;6.214;2022-07-11T05:35:08;1.95;;;0.73;;
54937;SDS011;52756;52.826;6.214;2022-07-11T05:37:34;1.50;;;0.77;;
54937;SDS011;52756;52.826;6.214;2022-07-11T05:40:00;2.05;;;0.70;;
54937;SDS011;52756;52.826;6.214;2022-07-11T05:42:26;1.10;;;0.70;;
54937;SDS011;52756;52.826;6.214;2022-07-11T05:44:52;1.08;;;0.60;;
54937;SDS011;52756;52.826;6.214;2022-07-11T05:47:18;2.45;;;0.80;;
54937;SDS011;52756;52.826;6.214;2022-07-11T05:49:43;1.23;;;0.60;;
54937;SDS011;52756;52.826;6.214;2022-07-11T05:52:09;1.10;;;0.70;;
54937;SDS011;52756;52.826;6.214;2022-07-11T05:54:36;0.73;;;0.43;;
54937;SDS011;52756;52.826;6.214;2022-07-11T05:57:01;2.40;;;0.90;;
54937;SDS011;52756;52.826;6.214;2022-07-11T05:59:29;1.30;;;0.80;;
54937;SDS011;52756;52.826;6.214;2022-07-11T06:01:55;2.10;;;0.85;;
54937;SDS011;52756;52.826;6.214;2022-07-11T06:04:21;2.05;;;0.75;;
54937;SDS011;52756;52.826;6.214;2022-07-11T06:06:47;0.93;;;0.70;;
54937;SDS011;52756;52.826;6.214;2022-07-11T06:09:13;0.70;;;0.50;;
54937;SDS011;52756;52.826;6.214;2022-07-11T06:11:39;0.43;;;0.40;;
54937;SDS011;52756;52.826;6.214;2022-07-11T06:14:05;0.75;;;0.60;;
54937;SDS011;52756;52.826;6.214;2022-07-11T06:16:31;1.08;;;0.50;;
54937;SDS011;52756;52.826;6.214;2022-07-11T06:18:57;2.35;;;0.70;;
54937;SDS011;52756;52.826;6.214;2022-07-11T06:21:23;1.30;;;0.45;;
54937;SDS011;52756;52.826;6.214;2022-07-11T06:23:50;1.40;;;0.80;;
54937;SDS011;52756;52.826;6.214;2022-07-11T06:26:16;1.73;;;0.77;;
54937;SDS011;52756;52.826;6.214;2022-07-11T06:28:41;2.35;;;0.50;;
54937;SDS011;52756;52.826;6.214;2022-07-11T06:31:07;1.10;;;0.40;;
54937;SDS011;52756;52.826;6.214;2022-07-11T06:33:33;1.42;;;0.60;;
54937;SDS011;52756;52.826;6.214;2022-07-11T06:36:00;1.13;;;0.50;;
54937;SDS011;52756;52.826;6.214;2022-07-11T06:38:26;1.05;;;0.47;;
54937;SDS011;52756;52.826;6.214;2022-07-11T06:40:53;2.00;;;0.90;;
54937;SDS011;52756;52.826;6.214;2022-07-11T06:43:19;3.00;;;0.60;;
54937;SDS011;52756;52.826;6.214;2022-07-11T06:45:45;0.85;;;0.50;;
54937;SDS011;52756;52.826;6.214;2022-07-11T06:48:12;1.38;;;0.50;;
54937;SDS011;52756;52.826;6.214;2022-07-11T06:50:37;2.53;;;0.70;;
54937;SDS011;52756;52.826;6.214;2022-07-11T06:53:03;0.70;;;0.30;;
54937;SDS011;52756;52.826;6.214;2022-07-11T06:55:29;0.90;;;0.43;;
54937;SDS011;52756;52.826;6.214;2022-07-11T06:57:55;0.60;;;0.22;;
54937;SDS011;52756;52.826;6.214;2022-07-11T07:00:21;2.28;;;0.52;;
54937;SDS011;52756;52.826;6.214;2022-07-11T07:02:46;1.08;;;0.50;;
54937;SDS011;52756;52.826;6.214;2022-07-11T07:05:12;0.73;;;0.20;;
54937;SDS011;52756;52.826;6.214;2022-07-11T07:07:38;0.30;;;0.30;;
54937;SDS011;52756;52.826;6.214;2022-07-11T07:10:04;1.42;;;0.30;;
54937;SDS011;52756;52.826;6.214;2022-07-11T07:12:30;0.73;;;0.30;;
54937;SDS011;52756;52.826;6.214;2022-07-11T07:14:56;0.10;;;0.10;;
54937;SDS011;52756;52.826;6.214;2022-07-11T07:17:24;1.30;;;0.30;;
54937;SDS011;52756;52.826;6.214;2022-07-11T07:19:50;0.22;;;0.20;;
54937;SDS011;52756;52.826;6.214;2022-07-11T07:22:16;1.40;;;0.38;;
54937;SDS011;52756;52.826;6.214;2022-07-11T07:24:42;0.60;;;0.30;;
54937;SDS011;52756;52.826;6.214;2022-07-11T07:27:08;0.90;;;0.38;;
54937;SDS011;52756;52.826;6.214;2022-07-11T07:29:34;0.88;;;0.22;;
54937;SDS011;52756;52.826;6.214;2022-07-11T07:31:59;0.55;;;0.35;;
54937;SDS011;52756;52.826;6.214;2022-07-11T07:34:25;0.35;;;0.30;;
54937;SDS011;52756;52.826;6.214;2022-07-11T07:36:51;0.65;;;0.30;;
54937;SDS011;52756;52.826;6.214;2022-07-11T07:39:17;0.35;;;0.20;;
54937;SDS011;52756;52.826;6.214;2022-07-11T07:41:43;1.15;;;0.50;;
54937;SDS011;52756;52.826;6.214;2022-07-11T07:44:08;1.27;;;0.40;;
54937;SDS011;52756;52.826;6.214;2022-07-11T07:46:34;1.27;;;0.25;;
54937;SDS011;52756;52.826;6.214;2022-07-11T07:49:00;0.93;;;0.43;;
54937;SDS011;52756;52.826;6.214;2022-07-11T07:51:26;0.60;;;0.30;;
54937;SDS011;52756;52.826;6.214;2022-07-11T07:53:51;1.08;;;0.30;;
54937;SDS011;52756;52.826;6.214;2022-07-11T07:56:17;0.47;;;0.32;;
54937;SDS011;52756;52.826;6.214;2022-07-11T07:58:44;0.60;;;0.30;;
54937;SDS011;52756;52.826;6.214;2022-07-11T08:01:10;0.47;;;0.13;;
54937;SDS011;52756;52.826;6.214;2022-07-11T08:03:55;1.33;;;0.43;;
54937;SDS011;52756;52.826;6.214;2022-07-11T08:06:21;1.23;;;0.40;;
54937;SDS011;52756;52.826;6.214;2022-07-11T08:08:46;2.55;;;0.20;;
54937;SDS011;52756;52.826;6.214;2022-07-11T08:11:12;0.98;;;0.20;;
54937;SDS011;52756;52.826;6.214;2022-07-11T08:13:38;0.80;;;0.20;;
54937;SDS011;52756;52.826;6.214;2022-07-11T08:16:04;1.05;;;0.30;;
54937;SDS011;52756;52.826;6.214;2022-07-11T08:18:32;1.45;;;0.38;;
54937;SDS011;52756;52.826;6.214;2022-07-11T08:20:58;1.50;;;0.30;;
54937;SDS011;52756;52.826;6.214;2022-07-11T08:23:24;1.05;;;0.30;;
54937;SDS011;52756;52.826;6.214;2022-07-11T08:25:50;0.63;;;0.28;;
54937;SDS011;52756;52.826;6.214;2022-07-11T08:28:16;1.00;;;0.50;;
54937;SDS011;52756;52.826;6.214;2022-07-11T08:30:42;0.98;;;0.40;;
54937;SDS011;52756;52.826;6.214;2022-07-11T08:33:08;0.55;;;0.38;;
54937;SDS011;52756;52.826;6.214;2022-07-11T08:35:35;0.98;;;0.30;;
54937;SDS011;52756;52.826;6.214;2022-07-11T08:38:00;0.57;;;0.30;;
54937;SDS011;52756;52.826;6.214;2022-07-11T08:40:26;0.90;;;0.40;;
54937;SDS011;52756;52.826;6.214;2022-07-11T08:42:52;0.63;;;0.32;;
54937;SDS011;52756;52.826;6.214;2022-07-11T08:45:20;0.43;;;0.30;;
54937;SDS011;52756;52.826;6.214;2022-07-11T08:47:53;0.57;;;0.40;;
54937;SDS011;52756;52.826;6.214;2022-07-11T08:50:20;1.38;;;0.30;;
54937;SDS011;52756;52.826;6.214;2022-07-11T08:52:47;0.60;;;0.30;;
54937;SDS011;52756;52.826;6.214;2022-07-11T08:55:13;0.55;;;0.28;;
54937;SDS011;52756;52.826;6.214;2022-07-11T08:57:39;0.60;;;0.20;;
54937;SDS011;52756;52.826;6.214;2022-07-11T09:00:06;0.95;;;0.30;;
54937;SDS011;52756;52.826;6.214;2022-07-11T09:02:34;0.43;;;0.10;;
54937;SDS011;52756;52.826;6.214;2022-07-11T09:05:04;0.10;;;0.10;;
54937;SDS011;52756;52.826;6.214;2022-07-11T09:07:31;0.52;;;0.10;;
54937;SDS011;52756;52.826;6.214;2022-07-11T09:09:57;0.10;;;0.10;;
54937;SDS011;52756;52.826;6.214;2022-07-11T09:12:23;0.15;;;0.10;;
54937;SDS011;52756;52.826;6.214;2022-07-11T09:14:49;0.17;;;0.10;;
54937;SDS011;52756;52.826;6.214;2022-07-11T09:17:23;0.50;;;0.20;;
54937;SDS011;52756;52.826;6.214;2022-07-11T09:19:53;0.20;;;0.10;;
54937;SDS011;52756;52.826;6.214;2022-07-11T09:22:19;0.05;;;0.05;;
54937;SDS011;52756;52.826;6.214;2022-07-11T09:30:27;0.35;;;0.30;;
54937;SDS011;52756;52.826;6.214;2022-07-11T09:32:55;0.30;;;0.20;;
54937;SDS011;52756;52.826;6.214;2022-07-11T09:35:27;0.63;;;0.17;;
54937;SDS011;52756;52.826;6.214;2022-07-11T09:38:03;0.55;;;0.20;;
54937;SDS011;52756;52.826;6.214;2022-07-11T09:40:30;0.77;;;0.15;;
54937;SDS011;52756;52.826;6.214;2022-07-11T09:42:57;0.52;;;0.10;;
54937;SDS011;52756;52.826;6.214;2022-07-11T09:45:25;0.55;;;0.30;;
54937;SDS011;52756;52.826;6.214;2022-07-11T09:47:53;1.33;;;0.30;;
54937;SDS011;52756;52.826;6.214;2022-07-11T09:50:22;0.57;;;0.10;;
54937;SDS011;52756;52.826;6.214;2022-07-11T09:55:32;0.50;;;0.10;;
54937;SDS011;52756;52.826;6.214;2022-07-11T09:58:02;0.80;;;0.10;;
54937;SDS011;52756;52.826;6.214;2022-07-11T10:00:32;1.00;;;0.20;;
54937;SDS011;52756;52.826;6.214;2022-07-11T10:02:59;0.10;;;0.10;;
54937;SDS011;52756;52.826;6.214;2022-07-11T10:05:25;0.63;;;0.10;;
54937;SDS011;52756;52.826;6.214;2022-07-11T10:07:51;0.45;;;0.20;;
54937;SDS011;52756;52.826;6.214;2022-07-11T10:10:17;0.28;;;0.10;;
54937;SDS011;52756;52.826;6.214;2022-07-11T10:12:43;0.57;;;0.17;;
54937;SDS011;52756;52.826;6.214;2022-07-11T10:15:11;0.10;;;0.10;;
54937;SDS011;52756;52.826;6.214;2022-07-11T10:25:40;0.30;;;0.10;;
54937;SDS011;52756;52.826;6.214;2022-07-11T10:28:39;0.30;;;0.00;;
54937;SDS011;52756;52.826;6.214;2022-07-11T10:31:29;0.30;;;0.10;;
54937;SDS011;52756;52.826;6.214;2022-07-11T10:36:28;1.77;;;0.20;;
54937;SDS011;52756;52.826;6.214;2022-07-11T10:41:39;0.45;;;0.20;;
54937;SDS011;52756;52.826;6.214;2022-07-11T10:44:05;0.30;;;0.00;;
54937;SDS011;52756;52.826;6.214;2022-07-11T10:46:32;0.35;;;0.10;;
54937;SDS011;52756;52.826;6.214;2022-07-11T10:59:21;0.25;;;0.05;;
54937;SDS011;52756;52.826;6.214;2022-07-11T11:09:57;0.22;;;0.20;;
54937;SDS011;52756;52.826;6.214;2022-07-11T11:23:25;0.10;;;0.10;;
54937;SDS011;52756;52.826;6.214;2022-07-11T11:28:37;0.57;;;0.30;;
54937;SDS011;52756;52.826;6.214;2022-07-11T11:31:18;0.38;;;0.28;;
54937;SDS011;52756;52.826;6.214;2022-07-11T11:33:45;0.25;;;0.00;;
54937;SDS011;52756;52.826;6.214;2022-07-11T11:36:14;0.10;;;0.10;;
54937;SDS011;52756;52.826;6.214;2022-07-11T11:38:41;0.17;;;0.10;;
54937;SDS011;52756;52.826;6.214;2022-07-11T11:41:07;0.10;;;0.10;;
54937;SDS011;52756;52.826;6.214;2022-07-11T11:43:36;0.22;;;0.05;;
54937;SDS011;52756;52.826;6.214;2022-07-11T11:46:03;0.25;;;0.10;;
54937;SDS011;52756;52.826;6.214;2022-07-11T11:48:29;0.70;;;0.20;;
54937;SDS011;52756;52.826;6.214;2022-07-11T11:51:08;0.30;;;0.20;;
54937;SDS011;52756;52.826;6.214;2022-07-11T11:53:40;0.00;;;0.00;;
54937;SDS011;52756;52.826;6.214;2022-07-11T11:56:15;0.38;;;0.08;;
54937;SDS011;52756;52.826;6.214;2022-07-11T11:58:58;0.47;;;0.10;;
54937;SDS011;52756;52.826;6.214;2022-07-11T12:01:26;0.73;;;0.10;;
54937;SDS011;52756;52.826;6.214;2022-07-11T12:03:54;1.35;;;0.13;;
54937;SDS011;52756;52.826;6.214;2022-07-11T12:06:24;0.15;;;0.13;;
54937;SDS011;52756;52.826;6.214;2022-07-11T12:09:13;0.43;;;0.10;;
54937;SDS011;52756;52.826;6.214;2022-07-11T12:11:45;0.80;;;0.10;;
54937;SDS011;52756;52.826;6.214;2022-07-11T12:14:13;0.10;;;0.10;;
54937;SDS011;52756;52.826;6.214;2022-07-11T12:16:40;0.75;;;0.17;;
54937;SDS011;52756;52.826;6.214;2022-07-11T12:21:48;0.20;;;0.10;;
54937;SDS011;52756;52.826;6.214;2022-07-11T12:24:17;0.65;;;0.22;;
54937;SDS011;52756;52.826;6.214;2022-07-11T12:26:45;0.68;;;0.30;;
54937;SDS011;52756;52.826;6.214;2022-07-11T12:29:16;0.50;;;0.10;;
54937;SDS011;52756;52.826;6.214;2022-07-11T12:34:22;0.40;;;0.10;;
54937;SDS011;52756;52.826;6.214;2022-07-11T12:37:02;0.20;;;0.20;;
54937;SDS011;52756;52.826;6.214;2022-07-11T12:39:29;1.10;;;0.20;;
54937;SDS011;52756;52.826;6.214;2022-07-11T12:41:58;0.38;;;0.25;;
54937;SDS011;52756;52.826;6.214;2022-07-11T12:44:24;0.22;;;0.20;;
54937;SDS011;52756;52.826;6.214;2022-07-11T12:47:09;0.20;;;0.20;;
54937;SDS011;52756;52.826;6.214;2022-07-11T12:49:35;0.70;;;0.32;;
54937;SDS011;52756;52.826;6.214;2022-07-11T12:52:01;0.40;;;0.10;;
54937;SDS011;52756;52.826;6.214;2022-07-11T12:54:31;0.55;;;0.20;;
54937;SDS011;52756;52.826;6.214;2022-07-11T12:56:58;1.05;;;0.20;;
54937;SDS011;52756;52.826;6.214;2022-07-11T12:59:27;0.30;;;0.17;;
54937;SDS011;52756;52.826;6.214;2022-07-11T13:01:55;0.30;;;0.20;;
54937;SDS011;52756;52.826;6.214;2022-07-11T13:04:36;0.60;;;0.30;;
54937;SDS011;52756;52.826;6.214;2022-07-11T13:07:44;0.50;;;0.10;;
54937;SDS011;52756;52.826;6.214;2022-07-11T13:10:22;0.47;;;0.22;;
54937;SDS011;52756;52.826;6.214;2022-07-11T13:12:51;0.60;;;0.15;;
54937;SDS011;52756;52.826;6.214;2022-07-11T13:15:18;0.82;;;0.28;;
54937;SDS011;52756;52.826;6.214;2022-07-11T13:17:47;0.65;;;0.10;;
54937;SDS011;52756;52.826;6.214;2022-07-11T13:20:15;0.20;;;0.10;;
54937;SDS011;52756;52.826;6.214;2022-07-11T13:22:42;0.60;;;0.30;;
54937;SDS011;52756;52.826;6.214;2022-07-11T13:25:10;0.65;;;0.10;;
54937;SDS011;52756;52.826;6.214;2022-07-11T13:27:38;0.35;;;0.20;;
54937;SDS011;52756;52.826;6.214;2022-07-11T13:30:06;0.55;;;0.30;;
54937;SDS011;52756;52.826;6.214;2022-07-11T13:32:37;1.05;;;0.20;;
54937;SDS011;52756;52.826;6.214;2022-07-11T13:35:03;0.35;;;0.30;;
54937;SDS011;52756;52.826;6.214;2022-07-11T13:37:29;0.20;;;0.20;;
54937;SDS011;52756;52.826;6.214;2022-07-11T13:39:55;0.50;;;0.20;;
54937;SDS011;52756;52.826;6.214;2022-07-11T13:42:21;0.65;;;0.30;;
54937;SDS011;52756;52.826;6.214;2022-07-11T13:44:47;0.70;;;0.20;;
54937;SDS011;52756;52.826;6.214;2022-07-11T13:47:12;0.98;;;0.40;;
54937;SDS011;52756;52.826;6.214;2022-07-11T13:49:38;0.47;;;0.20;;
54937;SDS011;52756;52.826;6.214;2022-07-11T13:52:05;0.57;;;0.30;;
54937;SDS011;52756;52.826;6.214;2022-07-11T13:54:31;0.10;;;0.10;;
54937;SDS011;52756;52.826;6.214;2022-07-11T13:56:57;0.77;;;0.30;;
54937;SDS011;52756;52.826;6.214;2022-07-11T13:59:23;0.73;;;0.25;;
54937;SDS011;52756;52.826;6.214;2022-07-11T14:01:49;0.43;;;0.15;;
54937;SDS011;52756;52.826;6.214;2022-07-11T14:04:14;1.05;;;0.10;;
54937;SDS011;52756;52.826;6.214;2022-07-11T14:06:40;0.20;;;0.10;;
54937;SDS011;52756;52.826;6.214;2022-07-11T14:09:06;0.10;;;0.10;;
54937;SDS011;52756;52.826;6.214;2022-07-11T14:11:32;0.10;;;0.10;;
54937;SDS011;52756;52.826;6.214;2022-07-11T14:13:57;0.40;;;0.20;;
54937;SDS011;52756;52.826;6.214;2022-07-11T14:16:23;0.63;;;0.20;;
54937;SDS011;52756;52.826;6.214;2022-07-11T14:18:50;0.20;;;0.10;;
54937;SDS011;52756;52.826;6.214;2022-07-11T14:21:16;0.30;;;0.10;;
54937;SDS011;52756;52.826;6.214;2022-07-11T14:23:42;0.17;;;0.10;;
54937;SDS011;52756;52.826;6.214;2022-07-11T14:26:08;0.10;;;0.10;;
54937;SDS011;52756;52.826;6.214;2022-07-11T14:28:34;0.50;;;0.28;;
54937;SDS011;52756;52.826;6.214;2022-07-11T14:31:00;0.40;;;0.17;;
54937;SDS011;52756;52.826;6.214;2022-07-11T14:33:26;0.45;;;0.20;;
54937;SDS011;52756;52.826;6.214;2022-07-11T14:35:52;1.73;;;0.30;;
54937;SDS011;52756;52.826;6.214;2022-07-11T14:38:20;1.40;;;0.20;;
54937;SDS011;52756;52.826;6.214;2022-07-11T14:40:46;0.57;;;0.20;;
54937;SDS011;52756;52.826;6.214;2022-07-11T14:43:12;0.88;;;0.20;;
54937;SDS011;52756;52.826;6.214;2022-07-11T14:45:38;0.93;;;0.20;;
54937;SDS011;52756;52.826;6.214;2022-07-11T14:48:04;0.40;;;0.20;;
54937;SDS011;52756;52.826;6.214;2022-07-11T14:50:30;0.77;;;0.30;;
54937;SDS011;52756;52.826;6.214;2022-07-11T14:52:58;0.28;;;0.20;;
54937;SDS011;52756;52.826;6.214;2022-07-11T14:55:24;0.35;;;0.20;;
54937;SDS011;52756;52.826;6.214;2022-07-11T14:57:50;0.28;;;0.20;;
54937;SDS011;52756;52.826;6.214;2022-07-11T15:00:15;0.52;;;0.22;;
54937;SDS011;52756;52.826;6.214;2022-07-11T15:02:44;0.77;;;0.25;;
54937;SDS011;52756;52.826;6.214;2022-07-11T15:05:28;0.30;;;0.25;;
54937;SDS011;52756;52.826;6.214;2022-07-11T15:07:54;1.00;;;0.25;;
54937;SDS011;52756;52.826;6.214;2022-07-11T15:10:38;0.15;;;0.15;;
54937;SDS011;52756;52.826;6.214;2022-07-11T15:13:22;0.40;;;0.30;;
54937;SDS011;52756;52.826;6.214;2022-07-11T15:15:48;0.40;;;0.20;;
54937;SDS011;52756;52.826;6.214;2022-07-11T15:18:14;0.40;;;0.20;;
54937;SDS011;52756;52.826;6.214;2022-07-11T15:20:40;0.45;;;0.22;;
54937;SDS011;52756;52.826;6.214;2022-07-11T15:23:05;1.38;;;0.10;;
54937;SDS011;52756;52.826;6.214;2022-07-11T15:25:31;0.30;;;0.20;;
54937;SDS011;52756;52.826;6.214;2022-07-11T15:27:57;0.45;;;0.17;;
54937;SDS011;52756;52.826;6.214;2022-07-11T15:30:23;0.47;;;0.35;;
54937;SDS011;52756;52.826;6.214;2022-07-11T15:32:49;0.52;;;0.20;;
54937;SDS011;52756;52.826;6.214;2022-07-11T15:35:14;0.30;;;0.20;;
54937;SDS011;52756;52.826;6.214;2022-07-11T15:37:40;0.30;;;0.20;;
54937;SDS011;52756;52.826;6.214;2022-07-11T15:40:07;0.40;;;0.20;;
54937;SDS011;52756;52.826;6.214;2022-07-11T15:42:33;1.40;;;0.40;;
54937;SDS011;52756;52.826;6.214;2022-07-11T15:44:59;1.30;;;0.30;;
54937;SDS011;52756;52.826;6.214;2022-07-11T15:47:24;0.30;;;0.30;;
54937;SDS011;52756;52.826;6.214;2022-07-11T15:49:51;0.65;;;0.30;;
54937;SDS011;52756;52.826;6.214;2022-07-11T15:52:16;0.80;;;0.30;;